Rieti, Italia

09:15 PM CET del 04 Marzo 2015 (GMT +0100)
Contigliano | Change Station
CLOSE
Current Station
Stazione meteo personale
Location: Contigliano,
Altitudine: 1686 ft
Stazioni meteo nelle vicinanze
Avvisi attivi: Thunderstorms

Alt. 1686 ft 42.42 °N, 12.76 °E | Updated 1 minute ago

Light Rain
Pioggia leggera
47.8 °F
Sembra 48 °F
N
0.0
Vento Variabile Vento da Nord
Gusts 0.0 mph

Oggi
Massima -- | Minima -- °F
--% Possibilità di precip.
Ieri
Massima -- | Minima -- °F
Precip. -- in
6:39 AM 6:01 PM
Gobba a ponente, 99% visible
Pressione 30.01 in
Visibilità 6.2 miglia
Nuvole Molto nuvoloso 2300 ft
Raffreddamento del vento 48 °F
Punto di rugiada 45 °F
Umidità 90%
Piovosità 0.04 in
Spessore del manto nevoso Non disponibile.
Raggi UV 0 fuori da 12
Polline Non disponibile.
Qualità dell'aria Non disponibile.
Flu Activity Non disponibile.
METAR LIRG 041755Z 13003KT 9999 -RA BKN023 12/10 Q1016 RMK OVC SCT060 MON NE CIME INC NC VIS MIN 9999 WHT

More Conditions Fewer Conditions

Pressione 30.01 in
Visibilità 6.2 miglia
Nuvole Molto nuvoloso 2300 ft
Raffreddamento del vento 48 °F
Punto di rugiada 45 °F
Umidità 90%
Piovosità 0.04 in
Spessore del manto nevoso Non disponibile.
Raggi UV 0 fuori da 12
Polline Non disponibile.
Qualità dell'aria Non disponibile.
Flu Activity Non disponibile.
METAR LIRG 041755Z 13003KT 9999 -RA BKN023 12/10 Q1016 RMK OVC SCT060 MON NE CIME INC NC VIS MIN 9999 WHT

More Conditions Fewer Conditions

10-Day Weather Forecast

Almanac

Astronomia

Mar. 04, 2015 Alba Tramonto
Ora attuale
Crepuscolo civile
Crepuscolo nautico
Crepuscolo astronomico
Luna
Estensione della luce visibile
Lunghezza del giorno
Tomorrow will be .
, % of the Moon is Illuminated

Gli estremi di oggi

Massime Regione Minime Regione

Community

WunderPhotos

Upload Photos

1,802,567 foto caricate!

WunderBlogs® & News

Nearby

Qualità dell'aria

  Qualità dell'aria Indice AQ Inquinante
Not available.

Profondità neve

Stazione Profondità Altitudine

Attività sismica

Città  Distanza Mag. Data & Ora
Minimo Magnitudo Mostrato è 2.5.

Temperature delle acque costiere

Località Temperatura

Stazioni meteo nelle vicinanze